sensor_id;sensor_type;location;lat;lon;timestamp;pressure;altitude;pressure_sealevel;temperature;humidity
50364;BME280;36272;59.400;17.982;2023-02-17T00:02:10;100689.84;;;4.51;86.44
50364;BME280;36272;59.400;17.982;2023-02-17T00:07:12;100679.53;;;4.41;86.24
50364;BME280;36272;59.400;17.982;2023-02-17T00:12:13;100676.13;;;4.32;86.13
50364;BME280;36272;59.400;17.982;2023-02-17T00:17:15;100673.56;;;4.24;86.25
50364;BME280;36272;59.400;17.982;2023-02-17T00:22:17;100663.72;;;4.18;86.75
50364;BME280;36272;59.400;17.982;2023-02-17T00:27:18;100663.88;;;4.16;87.08
50364;BME280;36272;59.400;17.982;2023-02-17T00:32:20;100657.41;;;4.19;87.24
50364;BME280;36272;59.400;17.982;2023-02-17T00:37:22;100648.44;;;4.20;87.34
50364;BME280;36272;59.400;17.982;2023-02-17T00:42:23;100648.94;;;4.23;87.49
50364;BME280;36272;59.400;17.982;2023-02-17T00:47:25;100655.66;;;4.26;87.93
50364;BME280;36272;59.400;17.982;2023-02-17T00:52:27;100650.66;;;4.31;87.87
50364;BME280;36272;59.400;17.982;2023-02-17T00:57:28;100644.00;;;4.35;87.83
50364;BME280;36272;59.400;17.982;2023-02-17T01:02:32;100639.69;;;4.34;87.56
50364;BME280;36272;59.400;17.982;2023-02-17T01:07:34;100630.59;;;4.37;87.53
50364;BME280;36272;59.400;17.982;2023-02-17T01:12:37;100629.38;;;4.39;87.42
50364;BME280;36272;59.400;17.982;2023-02-17T01:17:39;100632.03;;;4.39;87.21
50364;BME280;36272;59.400;17.982;2023-02-17T01:22:41;100644.47;;;4.39;87.21
50364;BME280;36272;59.400;17.982;2023-02-17T01:27:42;100644.47;;;4.39;87.32
50364;BME280;36272;59.400;17.982;2023-02-17T01:32:44;100636.03;;;4.35;87.24
50364;BME280;36272;59.400;17.982;2023-02-17T01:37:46;100638.06;;;4.33;87.34
50364;BME280;36272;59.400;17.982;2023-02-17T01:42:47;100635.41;;;4.33;87.54
50364;BME280;36272;59.400;17.982;2023-02-17T01:47:53;100622.00;;;4.35;87.37
50364;BME280;36272;59.400;17.982;2023-02-17T01:53:00;100620.88;;;4.44;87.36
50364;BME280;36272;59.400;17.982;2023-02-17T01:58:03;100621.28;;;4.78;86.34
50364;BME280;36272;59.400;17.982;2023-02-17T02:03:07;100611.16;;;4.66;86.91
50364;BME280;36272;59.400;17.982;2023-02-17T02:08:11;100604.50;;;4.70;86.69
50364;BME280;36272;59.400;17.982;2023-02-17T02:13:14;100606.50;;;4.68;86.97
50364;BME280;36272;59.400;17.982;2023-02-17T02:40:10;100562.13;;;4.55;88.13
50364;BME280;36272;59.400;17.982;2023-02-17T02:45:13;100560.13;;;4.57;88.46
50364;BME280;36272;59.400;17.982;2023-02-17T03:01:42;100531.75;;;4.95;87.30
50364;BME280;36272;59.400;17.982;2023-02-17T03:06:44;100532.91;;;4.85;88.44
50364;BME280;36272;59.400;17.982;2023-02-17T03:11:48;100522.50;;;4.84;88.31
50364;BME280;36272;59.400;17.982;2023-02-17T03:16:52;100519.66;;;4.85;88.35
50364;BME280;36272;59.400;17.982;2023-02-17T03:22:03;100503.56;;;4.87;89.00
50364;BME280;36272;59.400;17.982;2023-02-17T03:27:06;100511.31;;;4.88;88.63
50364;BME280;36272;59.400;17.982;2023-02-17T03:32:08;100517.88;;;4.93;88.83
50364;BME280;36272;59.400;17.982;2023-02-17T03:37:09;100510.38;;;4.96;88.88
50364;BME280;36272;59.400;17.982;2023-02-17T03:42:11;100522.63;;;4.97;89.21
50364;BME280;36272;59.400;17.982;2023-02-17T03:47:13;100520.59;;;4.99;89.10
50364;BME280;36272;59.400;17.982;2023-02-17T03:52:14;100513.09;;;5.03;89.44
50364;BME280;36272;59.400;17.982;2023-02-17T03:57:16;100509.88;;;5.08;89.14
50364;BME280;36272;59.400;17.982;2023-02-17T04:02:18;100496.41;;;5.09;89.16
50364;BME280;36272;59.400;17.982;2023-02-17T04:07:19;100504.16;;;5.11;89.03
50364;BME280;36272;59.400;17.982;2023-02-17T04:12:21;100494.41;;;5.11;88.96
50364;BME280;36272;59.400;17.982;2023-02-17T04:17:22;100486.03;;;5.08;89.10
50364;BME280;36272;59.400;17.982;2023-02-17T04:22:24;100468.69;;;5.12;89.00
50364;BME280;36272;59.400;17.982;2023-02-17T04:27:26;100467.94;;;5.18;88.93
50364;BME280;36272;59.400;17.982;2023-02-17T04:32:28;100459.19;;;5.24;89.17
50364;BME280;36272;59.400;17.982;2023-02-17T04:37:29;100443.53;;;5.29;89.03
50364;BME280;36272;59.400;17.982;2023-02-17T04:42:31;100445.81;;;5.32;88.83
50364;BME280;36272;59.400;17.982;2023-02-17T04:47:33;100442.75;;;5.35;88.87
50364;BME280;36272;59.400;17.982;2023-02-17T04:52:34;100440.09;;;5.35;88.78
50364;BME280;36272;59.400;17.982;2023-02-17T04:57:36;100440.16;;;5.42;88.73
50364;BME280;36272;59.400;17.982;2023-02-17T05:02:38;100433.25;;;5.48;88.81
50364;BME280;36272;59.400;17.982;2023-02-17T05:07:41;100414.28;;;5.51;88.79
50364;BME280;36272;59.400;17.982;2023-02-17T05:12:43;100423.69;;;5.54;88.90
50364;BME280;36272;59.400;17.982;2023-02-17T05:17:45;100407.56;;;5.55;88.92
50364;BME280;36272;59.400;17.982;2023-02-17T05:22:47;100419.41;;;5.59;89.04
50364;BME280;36272;59.400;17.982;2023-02-17T05:27:48;100411.28;;;5.61;89.03
50364;BME280;36272;59.400;17.982;2023-02-17T05:32:50;100404.56;;;5.65;88.98
50364;BME280;36272;59.400;17.982;2023-02-17T05:37:52;100390.06;;;5.68;88.72
50364;BME280;36272;59.400;17.982;2023-02-17T05:42:53;100393.97;;;5.72;88.97
50364;BME280;36272;59.400;17.982;2023-02-17T05:47:55;100378.91;;;5.79;88.74
50364;BME280;36272;59.400;17.982;2023-02-17T05:52:57;100378.50;;;5.82;88.66
50364;BME280;36272;59.400;17.982;2023-02-17T05:57:58;100380.94;;;5.77;88.99
50364;BME280;36272;59.400;17.982;2023-02-17T06:03:00;100379.50;;;5.81;89.29
50364;BME280;36272;59.400;17.982;2023-02-17T06:08:02;100350.94;;;5.83;88.84
50364;BME280;36272;59.400;17.982;2023-02-17T06:13:03;100353.19;;;5.86;89.07
50364;BME280;36272;59.400;17.982;2023-02-17T06:18:05;100349.94;;;5.91;88.99
50364;BME280;36272;59.400;17.982;2023-02-17T06:23:07;100352.81;;;5.89;88.93
50364;BME280;36272;59.400;17.982;2023-02-17T06:28:09;100341.38;;;5.95;89.09
50364;BME280;36272;59.400;17.982;2023-02-17T06:33:10;100338.50;;;5.97;88.71
50364;BME280;36272;59.400;17.982;2023-02-17T06:38:12;100333.22;;;5.97;88.87
50364;BME280;36272;59.400;17.982;2023-02-17T06:43:14;100331.97;;;6.00;88.86
50364;BME280;36272;59.400;17.982;2023-02-17T06:48:15;100329.53;;;5.98;88.78
50364;BME280;36272;59.400;17.982;2023-02-17T06:53:17;100328.34;;;6.01;88.93
50364;BME280;36272;59.400;17.982;2023-02-17T06:58:19;100316.09;;;6.06;88.25
50364;BME280;36272;59.400;17.982;2023-02-17T07:03:20;100308.31;;;6.05;88.43
50364;BME280;36272;59.400;17.982;2023-02-17T07:08:22;100304.44;;;6.01;88.33
50364;BME280;36272;59.400;17.982;2023-02-17T07:13:24;100290.94;;;5.95;88.54
50364;BME280;36272;59.400;17.982;2023-02-17T07:18:26;100277.06;;;5.93;88.96
50364;BME280;36272;59.400;17.982;2023-02-17T07:23:27;100270.09;;;5.92;88.69
50364;BME280;36272;59.400;17.982;2023-02-17T07:28:29;100260.28;;;5.93;88.87
50364;BME280;36272;59.400;17.982;2023-02-17T07:33:32;100246.41;;;5.98;88.86
50364;BME280;36272;59.400;17.982;2023-02-17T07:38:34;100235.63;;;6.06;88.61
50364;BME280;36272;59.400;17.982;2023-02-17T07:43:37;100236.84;;;6.10;88.53
50364;BME280;36272;59.400;17.982;2023-02-17T07:48:39;100222.56;;;6.18;88.58
50364;BME280;36272;59.400;17.982;2023-02-17T07:53:41;100218.03;;;6.25;88.36
50364;BME280;36272;59.400;17.982;2023-02-17T07:58:43;100178.22;;;6.32;88.07
50364;BME280;36272;59.400;17.982;2023-02-17T08:03:46;100173.25;;;6.42;87.92
50364;BME280;36272;59.400;17.982;2023-02-17T08:08:49;100167.75;;;6.44;87.41
50364;BME280;36272;59.400;17.982;2023-02-17T08:14:10;100159.75;;;6.50;87.31
50364;BME280;36272;59.400;17.982;2023-02-17T08:19:12;100156.69;;;6.60;87.05
50364;BME280;36272;59.400;17.982;2023-02-17T08:24:16;100151.34;;;6.67;86.91
50364;BME280;36272;59.400;17.982;2023-02-17T08:29:20;100149.47;;;6.74;86.60
50364;BME280;36272;59.400;17.982;2023-02-17T08:39:58;100136.91;;;6.95;85.95
50364;BME280;36272;59.400;17.982;2023-02-17T08:45:01;100134.78;;;7.10;85.60
50364;BME280;36272;59.400;17.982;2023-02-17T08:50:04;100111.38;;;7.26;85.07
50364;BME280;36272;59.400;17.982;2023-02-17T08:55:06;100119.06;;;7.34;84.59
50364;BME280;36272;59.400;17.982;2023-02-17T09:00:08;100097.97;;;7.39;84.30
50364;BME280;36272;59.400;17.982;2023-02-17T09:05:13;100065.94;;;7.53;83.65
50364;BME280;36272;59.400;17.982;2023-02-17T09:10:15;100071.00;;;7.61;83.47
50364;BME280;36272;59.400;17.982;2023-02-17T09:15:20;100049.00;;;7.72;83.20
50364;BME280;36272;59.400;17.982;2023-02-17T09:20:21;100061.19;;;7.80;82.57
50364;BME280;36272;59.400;17.982;2023-02-17T09:25:23;100047.81;;;7.87;82.77
50364;BME280;36272;59.400;17.982;2023-02-17T09:30:25;100022.97;;;7.93;82.06
50364;BME280;36272;59.400;17.982;2023-02-17T09:35:27;100022.38;;;7.91;81.66
50364;BME280;36272;59.400;17.982;2023-02-17T09:40:41;99993.16;;;7.84;81.90
50364;BME280;36272;59.400;17.982;2023-02-17T09:45:49;99980.44;;;7.86;81.70
50364;BME280;36272;59.400;17.982;2023-02-17T09:51:12;99971.56;;;7.93;81.37
50364;BME280;36272;59.400;17.982;2023-02-17T09:56:24;99950.47;;;8.10;80.85
50364;BME280;36272;59.400;17.982;2023-02-17T10:01:31;99926.97;;;8.18;79.88
50364;BME280;36272;59.400;17.982;2023-02-17T10:06:39;99901.72;;;8.21;80.09
50364;BME280;36272;59.400;17.982;2023-02-17T10:11:53;99887.97;;;8.24;79.92
50364;BME280;36272;59.400;17.982;2023-02-17T10:17:05;99868.53;;;8.36;79.34
50364;BME280;36272;59.400;17.982;2023-02-17T10:22:20;99857.44;;;8.39;79.17
50364;BME280;36272;59.400;17.982;2023-02-17T10:27:36;99841.69;;;8.37;78.68
50364;BME280;36272;59.400;17.982;2023-02-17T10:32:44;99825.50;;;8.62;78.70
50364;BME280;36272;59.400;17.982;2023-02-17T10:38:02;99802.97;;;8.34;78.52
50364;BME280;36272;59.400;17.982;2023-02-17T10:43:08;99777.47;;;8.15;78.71
50364;BME280;36272;59.400;17.982;2023-02-17T10:48:15;99770.38;;;8.09;78.38
50364;BME280;36272;59.400;17.982;2023-02-17T10:53:28;99749.84;;;7.97;78.30
50364;BME280;36272;59.400;17.982;2023-02-17T11:04:05;99723.13;;;8.04;78.25
50364;BME280;36272;59.400;17.982;2023-02-17T11:09:21;99688.97;;;8.13;77.13
50364;BME280;36272;59.400;17.982;2023-02-17T11:14:32;99675.75;;;8.18;77.24
50364;BME280;36272;59.400;17.982;2023-02-17T11:19:37;99657.81;;;8.13;76.88
50364;BME280;36272;59.400;17.982;2023-02-17T11:24:41;99621.13;;;8.03;77.10
50364;BME280;36272;59.400;17.982;2023-02-17T11:29:46;99631.31;;;8.07;77.44
50364;BME280;36272;59.400;17.982;2023-02-17T11:34:56;99605.81;;;7.99;77.47
50364;BME280;36272;59.400;17.982;2023-02-17T11:40:22;99594.25;;;7.93;77.43
50364;BME280;36272;59.400;17.982;2023-02-17T11:45:43;99591.47;;;7.88;77.35
50364;BME280;36272;59.400;17.982;2023-02-17T11:56:24;99564.13;;;7.81;76.69
50364;BME280;36272;59.400;17.982;2023-02-17T12:29:12;99445.91;;;7.41;76.80
50364;BME280;36272;59.400;17.982;2023-02-17T12:34:20;99414.53;;;7.55;76.54
50364;BME280;36272;59.400;17.982;2023-02-17T12:39:32;99397.78;;;7.31;76.48
50364;BME280;36272;59.400;17.982;2023-02-17T12:44:38;99377.56;;;7.18;76.72
50364;BME280;36272;59.400;17.982;2023-02-17T12:49:47;99353.75;;;7.11;76.64
50364;BME280;36272;59.400;17.982;2023-02-17T12:55:02;99329.72;;;7.06;76.63
50364;BME280;36272;59.400;17.982;2023-02-17T13:00:33;99314.09;;;7.09;77.10
50364;BME280;36272;59.400;17.982;2023-02-17T13:05:42;99301.75;;;6.91;77.66
50364;BME280;36272;59.400;17.982;2023-02-17T13:10:46;99284.78;;;6.80;78.42
50364;BME280;36272;59.400;17.982;2023-02-17T13:15:48;99265.81;;;6.65;79.10
50364;BME280;36272;59.400;17.982;2023-02-17T13:26:28;99208.88;;;6.37;80.76
50364;BME280;36272;59.400;17.982;2023-02-17T13:31:50;99186.69;;;6.31;81.45
50364;BME280;36272;59.400;17.982;2023-02-17T13:36:54;99153.47;;;6.29;81.75
50364;BME280;36272;59.400;17.982;2023-02-17T13:41:58;99135.78;;;6.22;82.01
50364;BME280;36272;59.400;17.982;2023-02-17T13:47:23;99112.94;;;6.21;82.99
50364;BME280;36272;59.400;17.982;2023-02-17T13:52:28;99089.41;;;6.13;83.10
50364;BME280;36272;59.400;17.982;2023-02-17T13:57:34;99060.06;;;6.08;83.55
50364;BME280;36272;59.400;17.982;2023-02-17T14:02:45;99041.81;;;6.00;83.88
50364;BME280;36272;59.400;17.982;2023-02-17T14:07:48;99022.44;;;5.99;84.15
50364;BME280;36272;59.400;17.982;2023-02-17T14:12:52;98999.47;;;5.93;84.61
50364;BME280;36272;59.400;17.982;2023-02-17T14:18:10;98985.78;;;5.84;84.80
50364;BME280;36272;59.400;17.982;2023-02-17T14:23:13;98945.84;;;5.79;85.41
50364;BME280;36272;59.400;17.982;2023-02-17T14:28:25;98933.16;;;5.81;85.99
50364;BME280;36272;59.400;17.982;2023-02-17T14:33:27;98924.28;;;5.75;85.90
50364;BME280;36272;59.400;17.982;2023-02-17T14:38:31;98892.13;;;5.72;86.26
50364;BME280;36272;59.400;17.982;2023-02-17T14:43:35;98885.19;;;5.71;86.35
50364;BME280;36272;59.400;17.982;2023-02-17T14:48:37;98860.66;;;5.63;86.93
50364;BME280;36272;59.400;17.982;2023-02-17T14:53:38;98836.19;;;5.61;86.80
50364;BME280;36272;59.400;17.982;2023-02-17T14:58:41;98814.66;;;5.58;87.05
50364;BME280;36272;59.400;17.982;2023-02-17T15:03:42;98803.47;;;5.56;87.25
50364;BME280;36272;59.400;17.982;2023-02-17T15:08:45;98765.53;;;5.55;87.29
50364;BME280;36272;59.400;17.982;2023-02-17T15:14:11;98745.91;;;5.56;87.51
50364;BME280;36272;59.400;17.982;2023-02-17T15:19:14;98696.25;;;5.51;87.63
50364;BME280;36272;59.400;17.982;2023-02-17T15:30:37;98651.41;;;5.50;87.59
50364;BME280;36272;59.400;17.982;2023-02-17T15:35:39;98620.63;;;5.49;87.93
50364;BME280;36272;59.400;17.982;2023-02-17T15:40:56;98585.59;;;5.47;88.50
50364;BME280;36272;59.400;17.982;2023-02-17T15:45:59;98579.16;;;5.43;88.49
50364;BME280;36272;59.400;17.982;2023-02-17T15:51:31;98543.41;;;5.45;89.26
50364;BME280;36272;59.400;17.982;2023-02-17T15:56:51;98523.56;;;5.48;89.88
50364;BME280;36272;59.400;17.982;2023-02-17T16:01:53;98498.41;;;5.50;90.19
50364;BME280;36272;59.400;17.982;2023-02-17T16:20:18;98420.19;;;5.53;91.52
50364;BME280;36272;59.400;17.982;2023-02-17T16:31:33;98362.47;;;5.60;92.46
50364;BME280;36272;59.400;17.982;2023-02-17T16:36:54;98342.94;;;5.66;92.70
50364;BME280;36272;59.400;17.982;2023-02-17T16:42:38;98332.31;;;5.66;93.04
50364;BME280;36272;59.400;17.982;2023-02-17T16:47:43;98312.16;;;5.65;93.31
50364;BME280;36272;59.400;17.982;2023-02-17T16:52:45;98299.75;;;5.71;93.10
50364;BME280;36272;59.400;17.982;2023-02-17T16:57:57;98265.78;;;5.68;93.62
50364;BME280;36272;59.400;17.982;2023-02-17T17:03:13;98246.16;;;5.69;94.09
50364;BME280;36272;59.400;17.982;2023-02-17T17:08:35;98241.97;;;5.73;94.25
50364;BME280;36272;59.400;17.982;2023-02-17T17:13:46;98213.31;;;5.75;94.63
50364;BME280;36272;59.400;17.982;2023-02-17T17:18:53;98191.84;;;5.77;95.06
50364;BME280;36272;59.400;17.982;2023-02-17T17:24:00;98175.44;;;5.80;94.97
50364;BME280;36272;59.400;17.982;2023-02-17T17:29:05;98175.72;;;5.84;94.98
50364;BME280;36272;59.400;17.982;2023-02-17T17:34:07;98161.16;;;5.86;95.13
50364;BME280;36272;59.400;17.982;2023-02-17T17:39:20;98125.34;;;5.89;95.47
50364;BME280;36272;59.400;17.982;2023-02-17T17:44:24;98101.69;;;6.15;94.50
50364;BME280;36272;59.400;17.982;2023-02-17T17:49:31;98100.19;;;5.96;94.98
50364;BME280;36272;59.400;17.982;2023-02-17T17:54:35;98080.25;;;5.89;95.70
50364;BME280;36272;59.400;17.982;2023-02-17T17:59:42;98056.63;;;5.87;96.11
50364;BME280;36272;59.400;17.982;2023-02-17T18:05:25;98050.81;;;5.90;95.85
50364;BME280;36272;59.400;17.982;2023-02-17T18:10:33;98015.00;;;5.93;96.03
50364;BME280;36272;59.400;17.982;2023-02-17T18:15:45;98008.13;;;5.97;96.02
50364;BME280;36272;59.400;17.982;2023-02-17T18:20:47;97999.91;;;5.99;95.92
50364;BME280;36272;59.400;17.982;2023-02-17T18:25:48;97988.78;;;6.02;96.33
50364;BME280;36272;59.400;17.982;2023-02-17T18:30:50;97971.31;;;6.06;96.21
50364;BME280;36272;59.400;17.982;2023-02-17T18:35:52;97956.19;;;6.06;96.12
50364;BME280;36272;59.400;17.982;2023-02-17T18:40:53;97946.91;;;6.09;96.36
50364;BME280;36272;59.400;17.982;2023-02-17T18:45:58;97934.97;;;6.12;96.13
50364;BME280;36272;59.400;17.982;2023-02-17T18:51:07;97917.22;;;6.17;96.56
50364;BME280;36272;59.400;17.982;2023-02-17T18:56:17;97899.94;;;6.20;96.67
50364;BME280;36272;59.400;17.982;2023-02-17T19:01:24;97898.66;;;6.22;96.14
50364;BME280;36272;59.400;17.982;2023-02-17T19:06:30;97868.38;;;6.23;96.38
50364;BME280;36272;59.400;17.982;2023-02-17T19:11:33;97872.63;;;6.24;96.29
50364;BME280;36272;59.400;17.982;2023-02-17T19:16:36;97851.66;;;6.23;96.48
50364;BME280;36272;59.400;17.982;2023-02-17T19:21:38;97851.94;;;6.27;96.57
50364;BME280;36272;59.400;17.982;2023-02-17T19:26:40;97845.56;;;6.28;96.63
50364;BME280;36272;59.400;17.982;2023-02-17T19:31:41;97812.91;;;6.32;96.26
50364;BME280;36272;59.400;17.982;2023-02-17T19:36:43;97802.56;;;6.31;96.61
50364;BME280;36272;59.400;17.982;2023-02-17T19:42:03;97804.94;;;6.37;97.17
50364;BME280;36272;59.400;17.982;2023-02-17T19:47:17;97795.13;;;6.38;96.83
50364;BME280;36272;59.400;17.982;2023-02-17T19:52:19;97803.63;;;6.40;96.53
50364;BME280;36272;59.400;17.982;2023-02-17T19:57:21;97790.88;;;6.42;96.39
50364;BME280;36272;59.400;17.982;2023-02-17T20:02:23;97784.78;;;6.47;96.44
50364;BME280;36272;59.400;17.982;2023-02-17T20:07:25;97791.41;;;6.49;96.49
50364;BME280;36272;59.400;17.982;2023-02-17T20:12:26;97788.50;;;6.51;96.35
50364;BME280;36272;59.400;17.982;2023-02-17T20:17:28;97774.69;;;6.54;96.42
50364;BME280;36272;59.400;17.982;2023-02-17T20:22:30;97770.16;;;6.60;96.45
50364;BME280;36272;59.400;17.982;2023-02-17T20:27:32;97755.28;;;6.64;96.51
50364;BME280;36272;59.400;17.982;2023-02-17T20:32:34;97765.09;;;6.68;96.37
50364;BME280;36272;59.400;17.982;2023-02-17T20:37:37;97756.06;;;6.69;96.27
50364;BME280;36272;59.400;17.982;2023-02-17T20:42:38;97744.63;;;6.74;96.16
50364;BME280;36272;59.400;17.982;2023-02-17T20:47:40;97752.06;;;6.77;96.17
50364;BME280;36272;59.400;17.982;2023-02-17T20:52:42;97739.31;;;6.79;96.13
50364;BME280;36272;59.400;17.982;2023-02-17T20:57:44;97742.75;;;6.80;96.27
50364;BME280;36272;59.400;17.982;2023-02-17T21:02:48;97727.09;;;6.78;96.31
50364;BME280;36272;59.400;17.982;2023-02-17T21:07:52;97738.25;;;6.80;96.00
50364;BME280;36272;59.400;17.982;2023-02-17T21:12:56;97738.25;;;6.80;96.17
50364;BME280;36272;59.400;17.982;2023-02-17T21:17:57;97739.31;;;6.79;96.58
50364;BME280;36272;59.400;17.982;2023-02-17T21:22:59;97728.69;;;6.79;96.61
50364;BME280;36272;59.400;17.982;2023-02-17T21:28:06;97721.50;;;6.80;96.99
50364;BME280;36272;59.400;17.982;2023-02-17T21:33:08;97724.16;;;6.85;96.55
50364;BME280;36272;59.400;17.982;2023-02-17T21:38:10;97734.50;;;6.87;96.56
50364;BME280;36272;59.400;17.982;2023-02-17T21:43:12;97734.22;;;6.88;96.69
50364;BME280;36272;59.400;17.982;2023-02-17T21:48:33;97725.97;;;6.90;96.58
50364;BME280;36272;59.400;17.982;2023-02-17T21:53:35;97715.34;;;6.90;96.55
50364;BME280;36272;59.400;17.982;2023-02-17T21:58:37;97713.75;;;6.89;96.85
50364;BME280;36272;59.400;17.982;2023-02-17T22:03:38;97718.00;;;6.90;96.55
50364;BME280;36272;59.400;17.982;2023-02-17T22:08:44;97703.66;;;6.85;97.02
50364;BME280;36272;59.400;17.982;2023-02-17T22:13:47;97720.19;;;6.82;96.93
50364;BME280;36272;59.400;17.982;2023-02-17T22:18:49;97716.47;;;6.78;97.18
50364;BME280;36272;59.400;17.982;2023-02-17T22:23:51;97726.28;;;6.78;97.36
50364;BME280;36272;59.400;17.982;2023-02-17T22:28:53;97726.03;;;6.79;97.33
50364;BME280;36272;59.400;17.982;2023-02-17T22:33:56;97721.78;;;6.78;97.29
50364;BME280;36272;59.400;17.982;2023-02-17T22:38:59;97737.19;;;6.81;97.38
50364;BME280;36272;59.400;17.982;2023-02-17T22:44:01;97743.03;;;6.83;97.42
50364;BME280;36272;59.400;17.982;2023-02-17T22:49:04;97743.56;;;6.80;97.24
50364;BME280;36272;59.400;17.982;2023-02-17T22:54:06;97750.19;;;6.78;97.62
50364;BME280;36272;59.400;17.982;2023-02-17T22:59:08;97764.28;;;6.78;97.62
50364;BME280;36272;59.400;17.982;2023-02-17T23:04:11;97755.78;;;6.81;97.60
50364;BME280;36272;59.400;17.982;2023-02-17T23:09:15;97766.13;;;6.78;97.19
50364;BME280;36272;59.400;17.982;2023-02-17T23:14:22;97786.34;;;6.74;97.65
50364;BME280;36272;59.400;17.982;2023-02-17T23:19:24;97775.47;;;6.70;97.70
50364;BME280;36272;59.400;17.982;2023-02-17T23:24:26;97787.41;;;6.67;97.99
50364;BME280;36272;59.400;17.982;2023-02-17T23:29:28;97795.66;;;6.61;97.96
50364;BME280;36272;59.400;17.982;2023-02-17T23:34:31;97800.72;;;6.57;98.21
50364;BME280;36272;59.400;17.982;2023-02-17T23:39:36;97798.06;;;6.47;98.79
50364;BME280;36272;59.400;17.982;2023-02-17T23:44:38;97815.81;;;6.41;98.72
50364;BME280;36272;59.400;17.982;2023-02-17T23:49:39;97823.28;;;6.34;98.88
50364;BME280;36272;59.400;17.982;2023-02-17T23:54:41;97828.03;;;6.27;99.24
50364;BME280;36272;59.400;17.982;2023-02-17T23:59:44;97836.78;;;6.27;99.16
